createdAt,value
2022-12-16T00:04:10.931Z,89.91
2022-12-16T00:09:08.875Z,91.70
2022-12-16T00:14:06.755Z,92.62
2022-12-16T00:19:04.646Z,94.85
2022-12-16T00:24:03.881Z,95.51
2022-12-16T00:29:01.683Z,93.69
2022-12-16T00:34:00.302Z,93.68
2022-12-16T00:38:58.100Z,92.61
2022-12-16T00:43:57.462Z,93.96
2022-12-16T00:48:55.523Z,92.14
2022-12-16T00:53:53.407Z,91.90
2022-12-16T00:58:52.369Z,91.53
2022-12-16T01:03:51.701Z,91.76
2022-12-16T01:08:49.756Z,94.27
2022-12-16T01:13:48.031Z,93.63
2022-12-16T01:18:46.026Z,94.26
2022-12-16T01:23:45.820Z,92.30
2022-12-16T01:28:43.672Z,95.46
2022-12-16T01:33:41.512Z,94.85
2022-12-16T01:38:40.220Z,95.40
2022-12-16T01:43:40.329Z,95.24
2022-12-16T01:48:45.464Z,94.78
2022-12-16T01:53:44.202Z,94.72
2022-12-16T01:58:43.996Z,94.27
2022-12-16T02:03:43.572Z,95.10
2022-12-16T02:08:41.699Z,95.22
2022-12-16T02:13:49.430Z,95.19
2022-12-16T02:18:54.211Z,95.72
2022-12-16T02:24:06.270Z,95.36
2022-12-16T02:29:16.806Z,96.93
2022-12-16T02:34:20.992Z,95.97
2022-12-16T02:39:22.561Z,96.57
2022-12-16T02:44:21.138Z,96.48
2022-12-16T02:49:33.791Z,97.53
2022-12-16T02:54:32.936Z,98.91
2022-12-16T02:59:34.341Z,98.59
2022-12-16T03:04:36.485Z,99.61
2022-12-16T03:09:37.964Z,100.00
2022-12-16T03:14:37.058Z,100.00
2022-12-16T03:19:35.806Z,100.00
2022-12-16T03:24:35.480Z,99.47
2022-12-16T03:29:37.640Z,98.68
2022-12-16T03:34:41.626Z,98.40
2022-12-16T03:39:42.957Z,98.34
2022-12-16T03:44:41.794Z,98.30
2022-12-16T03:49:39.815Z,100.00
2022-12-16T03:54:37.597Z,100.00
2022-12-16T03:59:36.765Z,100.00
2022-12-16T04:04:34.694Z,100.00
2022-12-16T04:09:32.487Z,99.51
2022-12-16T04:14:53.247Z,99.24
2022-12-16T04:20:10.615Z,100.00
2022-12-16T04:25:10.323Z,100.00
2022-12-16T04:30:20.694Z,100.00
2022-12-16T04:35:38.140Z,99.27
2022-12-16T04:40:53.263Z,99.54
2022-12-16T04:46:11.140Z,98.76
2022-12-16T04:51:28.183Z,100.00
2022-12-16T04:56:43.934Z,100.00
2022-12-16T05:01:59.766Z,99.50
2022-12-16T05:07:16.783Z,100.00
2022-12-16T05:12:32.639Z,97.14
2022-12-16T05:17:48.100Z,97.77
2022-12-16T05:23:05.063Z,99.57
2022-12-16T05:28:20.646Z,100.00
2022-12-16T05:33:36.074Z,99.85
2022-12-16T05:38:53.276Z,99.32
2022-12-16T05:44:08.874Z,100.00
2022-12-16T05:49:23.997Z,100.00
2022-12-16T05:54:41.178Z,100.00
2022-12-16T05:59:56.916Z,99.46
2022-12-16T06:05:12.750Z,99.23
2022-12-16T06:10:29.782Z,99.00
2022-12-16T06:15:44.857Z,98.07
2022-12-16T06:21:00.019Z,98.32
2022-12-16T06:26:22.490Z,99.43
2022-12-16T06:31:37.772Z,98.85
2022-12-16T06:36:53.635Z,99.44
2022-12-16T06:42:10.438Z,97.65
2022-12-16T06:47:25.607Z,96.58
2022-12-16T06:52:40.871Z,96.94
2022-12-16T06:57:53.910Z,94.38
2022-12-16T07:03:09.612Z,93.26
2022-12-16T07:08:24.861Z,93.74
2022-12-16T07:13:41.644Z,92.99
2022-12-16T07:18:57.271Z,93.40
2022-12-16T07:24:12.420Z,93.68
2022-12-16T07:29:29.574Z,95.86
2022-12-16T07:34:49.876Z,95.57
2022-12-16T07:40:05.648Z,92.72
2022-12-16T07:45:25.717Z,91.86
2022-12-16T07:50:41.040Z,91.10
2022-12-16T07:55:56.139Z,90.57
2022-12-16T08:01:13.161Z,90.47
2022-12-16T08:06:28.499Z,92.16
2022-12-16T08:11:43.870Z,91.43
2022-12-16T08:17:00.562Z,89.64
2022-12-16T08:22:15.805Z,90.78
2022-12-16T08:27:30.932Z,89.58
2022-12-16T08:32:48.066Z,89.37
2022-12-16T08:38:07.584Z,88.78
2022-12-16T08:43:27.782Z,91.91
2022-12-16T08:48:44.684Z,89.42
2022-12-16T08:53:59.776Z,89.36
2022-12-16T08:59:14.891Z,88.86
2022-12-16T09:04:27.941Z,88.87
2022-12-16T09:09:43.206Z,88.33
2022-12-16T09:14:59.115Z,88.29
2022-12-16T09:20:16.064Z,87.86
2022-12-16T09:25:31.375Z,87.97
2022-12-16T09:30:46.899Z,87.75
2022-12-16T09:36:03.950Z,86.82
2022-12-16T09:41:33.831Z,86.18
2022-12-16T09:46:55.003Z,86.19
2022-12-16T09:52:12.491Z,86.19
2022-12-16T09:57:32.295Z,84.76
2022-12-16T10:02:48.363Z,87.16
2022-12-16T10:08:13.089Z,87.18
2022-12-16T10:13:47.663Z,84.28
2022-12-16T10:19:10.071Z,85.65
2022-12-16T10:24:30.692Z,84.68
2022-12-16T10:29:47.103Z,84.53
2022-12-16T10:35:17.688Z,84.45
2022-12-16T10:40:36.575Z,83.64
2022-12-16T10:45:54.901Z,84.60
2022-12-16T10:51:10.661Z,83.88
2022-12-16T10:56:34.340Z,84.92
2022-12-16T11:01:50.374Z,83.79
2022-12-16T11:07:05.912Z,84.22
2022-12-16T11:12:33.721Z,84.35
2022-12-16T11:17:49.442Z,83.83
2022-12-16T11:23:04.650Z,83.79
2022-12-16T11:28:24.614Z,84.61
2022-12-16T11:33:42.301Z,83.41
2022-12-16T11:39:10.870Z,84.15
2022-12-16T11:44:31.882Z,82.74
2022-12-16T11:49:49.126Z,82.18
2022-12-16T11:55:10.976Z,82.30
2022-12-16T12:00:32.801Z,83.41
2022-12-16T12:05:50.423Z,83.44
2022-12-16T12:11:11.347Z,83.44
2022-12-16T12:16:32.584Z,83.87
2022-12-16T12:21:51.381Z,84.38
2022-12-16T12:27:11.461Z,83.91
2022-12-16T12:32:35.470Z,83.83
2022-12-16T12:37:53.268Z,84.07
2022-12-16T12:43:11.000Z,83.97
2022-12-16T12:48:33.633Z,84.73
2022-12-16T12:53:54.643Z,85.99
2022-12-16T12:59:14.639Z,85.35
2022-12-16T13:04:32.367Z,84.71
2022-12-16T13:09:49.611Z,84.79
2022-12-16T13:15:12.640Z,85.06
2022-12-16T13:20:53.999Z,85.79
2022-12-16T13:26:24.783Z,85.87
2022-12-16T13:31:40.519Z,85.39
2022-12-16T13:36:58.728Z,85.48
2022-12-16T13:42:18.791Z,84.63
2022-12-16T13:47:50.150Z,84.32
2022-12-16T13:53:11.058Z,84.66
2022-12-16T13:58:32.929Z,85.17
2022-12-16T14:03:57.008Z,85.22
2022-12-16T14:09:15.344Z,86.71
2022-12-16T14:14:39.196Z,86.96
2022-12-16T14:20:00.917Z,87.57
2022-12-16T14:25:27.830Z,87.42
2022-12-16T14:30:44.672Z,86.98
2022-12-16T14:36:07.568Z,87.18
2022-12-16T14:41:24.925Z,85.96
2022-12-16T14:46:46.307Z,87.10
2022-12-16T14:52:05.501Z,87.58
2022-12-16T14:57:22.811Z,88.37
2022-12-16T15:02:44.953Z,87.92
2022-12-16T15:08:01.548Z,87.62
2022-12-16T15:13:18.702Z,87.75
2022-12-16T15:18:37.710Z,87.63
2022-12-16T15:23:53.517Z,87.46
2022-12-16T15:29:10.931Z,87.45
2022-12-16T15:34:46.604Z,86.81
2022-12-16T15:40:02.233Z,87.02
2022-12-16T15:45:19.660Z,87.82
2022-12-16T15:50:37.580Z,87.44
2022-12-16T15:55:54.592Z,87.47
2022-12-16T16:01:16.828Z,87.07
2022-12-16T16:06:34.448Z,87.09
2022-12-16T16:11:49.793Z,87.04
2022-12-16T16:17:06.978Z,89.14
2022-12-16T16:22:22.499Z,88.33
2022-12-16T16:27:40.237Z,88.38
2022-12-16T16:32:57.383Z,88.42
2022-12-16T16:38:18.075Z,88.22
2022-12-16T16:43:34.805Z,87.95
2022-12-16T16:48:52.124Z,87.67
2022-12-16T16:54:12.760Z,89.60
2022-12-16T16:59:28.375Z,89.01
2022-12-16T17:04:45.508Z,89.23
2022-12-16T17:10:01.144Z,89.64
2022-12-16T17:15:18.545Z,89.05
2022-12-16T17:20:35.978Z,89.05
2022-12-16T17:25:51.555Z,89.01
2022-12-16T17:31:06.835Z,88.89
2022-12-16T17:36:27.213Z,89.40
2022-12-16T17:41:45.994Z,89.39
2022-12-16T17:47:01.281Z,89.62
2022-12-16T17:52:18.144Z,89.73
2022-12-16T17:57:33.891Z,89.47
2022-12-16T18:02:49.771Z,89.37
2022-12-16T18:08:06.895Z,88.80
2022-12-16T18:13:23.172Z,88.74
2022-12-16T18:18:41.634Z,87.93
2022-12-16T18:24:03.143Z,87.62
2022-12-16T18:29:18.855Z,88.19
2022-12-16T18:34:34.477Z,88.80
2022-12-16T18:39:51.452Z,89.06
2022-12-16T18:45:07.742Z,88.97
2022-12-16T18:50:28.569Z,88.82
2022-12-16T18:55:47.194Z,88.62
2022-12-16T19:01:02.845Z,88.48
2022-12-16T19:06:17.987Z,88.67
2022-12-16T19:11:35.096Z,89.52
2022-12-16T19:16:50.438Z,92.32
2022-12-16T19:22:05.883Z,93.57
2022-12-16T19:27:22.624Z,92.59
2022-12-16T19:32:38.460Z,97.02
2022-12-16T19:37:53.806Z,95.02
2022-12-16T19:43:10.944Z,93.03
2022-12-16T19:48:26.711Z,92.75
2022-12-16T19:53:42.060Z,92.48
2022-12-16T19:59:01.156Z,92.20
2022-12-16T20:04:16.852Z,92.46
2022-12-16T20:09:31.959Z,91.90
2022-12-16T20:14:49.008Z,91.38
2022-12-16T20:20:07.925Z,90.41
2022-12-16T20:25:24.015Z,90.74
2022-12-16T20:30:41.817Z,90.54
2022-12-16T20:35:57.067Z,91.26
2022-12-16T20:41:14.167Z,92.08
2022-12-16T20:46:31.191Z,91.67
2022-12-16T20:51:47.441Z,91.55
2022-12-16T20:57:05.864Z,92.71
2022-12-16T21:02:28.022Z,92.20
2022-12-16T21:07:48.351Z,92.64
2022-12-16T21:13:06.945Z,92.47
2022-12-16T21:18:26.467Z,93.37
2022-12-16T21:23:42.825Z,93.35
2022-12-16T21:28:58.503Z,93.74
2022-12-16T21:34:15.502Z,93.14
2022-12-16T21:39:32.296Z,91.92
2022-12-16T21:44:48.123Z,92.62
2022-12-16T21:50:05.078Z,93.19
2022-12-16T21:55:20.734Z,91.44
2022-12-16T22:00:36.751Z,92.38
2022-12-16T22:05:56.083Z,92.66
2022-12-16T22:11:14.609Z,92.90
2022-12-16T22:16:29.497Z,92.93
2022-12-16T22:21:46.466Z,99.27
2022-12-16T22:27:01.674Z,100.00
2022-12-16T22:32:17.375Z,100.00
2022-12-16T22:37:34.455Z,100.00
2022-12-16T22:42:50.414Z,100.00
2022-12-16T22:48:06.173Z,100.00
2022-12-16T22:53:23.314Z,100.00
2022-12-16T22:58:39.202Z,99.90
2022-12-16T23:03:56.421Z,97.11
2022-12-16T23:09:13.410Z,96.83
2022-12-16T23:14:28.890Z,95.24
2022-12-16T23:19:44.898Z,93.70
2022-12-16T23:25:01.849Z,96.71
2022-12-16T23:30:17.560Z,98.36
2022-12-16T23:35:32.926Z,99.43
2022-12-16T23:40:51.918Z,99.95
2022-12-16T23:46:22.193Z,97.81
2022-12-16T23:51:36.548Z,96.38
2022-12-16T23:56:53.304Z,94.81
